Time;durP1;ratioP1;P1;durP2;ratioP2;P2;SDS_P1;SDS_P2;PMS_P1;PMS_P2;Temp;Humidity;BMP_temperature;BMP_pressure;BME280_temperature;BME280_humidity;BME280_pressure;Samples;Min_cycle;Max_cycle;Signal;HPM_P1;HPM_P2
2023/08/04 00:01:54;;;;;;;10.25;7.85;;;;;;;25.45;61.31;98807.88;6287794;22;20007;-86
2023/08/04 00:04:20;;;;;;;9.48;7.50;;;;;;;25.36;61.90;98799.16;6288088;22;20021;-86
2023/08/04 00:06:45;;;;;;;10.73;7.80;;;;;;;25.38;61.34;98792.06;6287956;22;20003;-86
2023/08/04 00:09:10;;;;;;;8.27;7.00;;;;;;;25.51;60.79;98794.53;6262028;22;20002;-86
2023/08/04 00:11:36;;;;;;;8.63;6.78;;;;;;;25.53;61.21;98805.97;6262601;22;20003;-86
2023/08/04 00:14:01;;;;;;;8.38;7.50;;;;;;;25.33;61.32;98791.63;6288081;22;20433;-86
2023/08/04 00:16:27;;;;;;;9.07;7.60;;;;;;;25.34;61.15;98805.03;6287263;22;20019;-86
2023/08/04 00:18:52;;;;;;;12.07;9.82;;;;;;;25.43;60.91;98809.44;6263057;22;20007;-86
2023/08/04 00:21:18;;;;;;;9.57;8.25;;;;;;;25.38;61.74;98807.78;6262259;22;20024;-86
2023/08/04 00:23:43;;;;;;;8.63;7.72;;;;;;;25.28;62.63;98811.28;6262460;22;19995;-86
2023/08/04 00:26:09;;;;;;;11.98;7.72;;;;;;;25.23;62.53;98797.84;6288284;22;19999;-86
2023/08/04 00:28:34;;;;;;;10.85;7.57;;;;;;;25.16;62.72;98799.34;6262057;22;19987;-86
2023/08/04 00:31:00;;;;;;;10.77;7.72;;;;;;;25.12;62.74;98800.47;6287670;22;20009;-86
2023/08/04 00:33:31;;;;;;;9.02;7.35;;;;;;;24.97;64.13;98822.38;6288124;22;20007;-86
2023/08/04 00:35:57;;;;;;;13.18;8.25;;;;;;;24.80;63.82;98796.25;6267499;22;20040;-96
2023/08/04 00:38:23;;;;;;;9.90;8.07;;;;;;;24.72;64.38;98797.34;6295279;22;20422;-96
2023/08/04 00:40:48;;;;;;;9.93;8.32;;;;;;;24.84;64.04;98821.09;6270375;22;20005;-96
2023/08/04 00:43:14;;;;;;;10.20;8.80;;;;;;;24.64;64.08;98801.19;6270183;22;20054;-96
2023/08/04 00:45:39;;;;;;;13.50;8.23;;;;;;;24.60;63.99;98786.59;6295462;22;20047;-96
2023/08/04 00:48:05;;;;;;;9.77;8.07;;;;;;;24.70;64.32;98796.16;6270680;22;20063;-96
2023/08/04 00:50:32;;;;;;;10.82;8.00;;;;;;;24.74;64.31;98802.50;6269730;22;20318;-96
2023/08/04 00:52:58;;;;;;;11.57;8.43;;;;;;;24.81;63.85;98808.06;6269780;22;19986;-96
2023/08/04 00:55:26;;;;;;;10.25;8.30;;;;;;;24.85;63.25;98791.56;6270784;22;20005;-96
2023/08/04 00:57:51;;;;;;;10.85;8.43;;;;;;;24.86;63.79;98787.63;6294679;22;19995;-96
2023/08/04 01:00:17;;;;;;;11.10;9.02;;;;;;;24.96;63.51;98787.72;6270353;22;19998;-96
2023/08/04 01:02:42;;;;;;;9.90;8.57;;;;;;;24.80;63.85;98778.94;6269435;22;20006;-96
2023/08/04 01:05:11;;;;;;;11.35;8.13;;;;;;;24.70;64.54;98779.63;6269126;22;19991;-96
2023/08/04 01:07:49;;;;;;;11.00;7.28;;;;;;;24.59;64.35;98779.50;6269208;22;20043;-96
2023/08/04 01:10:25;;;;;;;10.52;7.85;;;;;;;24.45;65.25;98782.88;6268913;22;20512;-96
2023/08/04 01:12:58;;;;;;;8.75;7.65;;;;;;;24.36;65.16;98779.59;6267583;22;19999;-95
2023/08/04 01:15:24;;;;;;;9.32;7.30;;;;;;;24.51;65.21;98808.94;6268173;22;20015;-96
2023/08/04 01:17:50;;;;;;;11.77;7.80;;;;;;;24.28;64.83;98784.25;6270343;22;20002;-96
2023/08/04 01:20:16;;;;;;;9.15;7.55;;;;;;;24.38;64.75;98793.78;6270681;22;19998;-96
2023/08/04 01:22:41;;;;;;;9.70;8.30;;;;;;;24.46;64.60;98808.44;6270291;22;20001;-96
2023/08/04 01:25:07;;;;;;;9.55;8.00;;;;;;;24.39;64.38;98787.91;6269233;22;20003;-96
2023/08/04 01:27:41;;;;;;;10.07;7.75;;;;;;;24.62;64.45;98822.03;6269080;22;20030;-96
2023/08/04 01:30:10;;;;;;;10.77;7.78;;;;;;;24.55;63.69;98789.69;6296314;22;20077;-96
2023/08/04 01:32:36;;;;;;;8.65;7.57;;;;;;;24.72;63.67;98797.34;6295951;22;20046;-96
2023/08/04 01:35:02;;;;;;;12.45;7.65;;;;;;;24.74;63.15;98797.75;6269838;22;19994;-96
2023/08/04 01:37:27;;;;;;;11.70;8.10;;;;;;;24.47;64.54;98791.53;6270461;22;19998;-96
2023/08/04 01:39:53;;;;;;;8.88;7.95;;;;;;;24.34;64.75;98790.19;6270407;22;20009;-96
2023/08/04 01:42:19;;;;;;;11.55;8.07;;;;;;;24.35;64.11;98794.53;6273585;22;19999;-96
2023/08/04 01:44:47;;;;;;;8.65;7.53;;;;;;;24.21;64.96;98773.16;6276483;22;20006;-96
2023/08/04 01:47:19;;;;;;;13.50;7.50;;;;;;;24.39;65.69;98823.69;6279001;22;20066;-96
2023/08/04 01:49:44;;;;;;;9.07;7.70;;;;;;;24.16;65.44;98801.00;6278132;22;20013;-96
2023/08/04 01:52:13;;;;;;;11.52;7.47;;;;;;;24.08;66.08;98802.06;6277370;22;19999;-96
2023/08/04 01:54:39;;;;;;;11.13;7.63;;;;;;;23.90;66.52;98804.56;6277428;22;20003;-96
2023/08/04 01:57:04;;;;;;;8.88;7.30;;;;;;;23.97;66.67;98823.94;6276934;22;20010;-96
2023/08/04 01:59:30;;;;;;;10.38;7.43;;;;;;;23.79;67.40;98796.97;6276857;22;20003;-96
2023/08/04 02:01:56;;;;;;;9.02;7.85;;;;;;;23.92;67.18;98830.53;6277996;22;19999;-96
2023/08/04 02:04:25;;;;;;;10.90;7.97;;;;;;;23.71;67.46;98811.75;6277041;22;20004;-96
2023/08/04 02:06:51;;;;;;;13.55;8.27;;;;;;;23.84;67.32;98837.09;6278074;22;20006;-96
2023/08/04 02:09:16;;;;;;;10.85;7.72;;;;;;;23.66;67.40;98809.31;6277425;22;19998;-96
2023/08/04 02:11:42;;;;;;;10.13;8.50;;;;;;;23.67;67.28;98808.16;6276582;22;19999;-96
2023/08/04 02:14:08;;;;;;;12.98;7.80;;;;;;;23.64;67.52;98806.16;6277811;22;20429;-96
2023/08/04 02:16:34;;;;;;;10.13;8.13;;;;;;;23.57;67.61;98798.59;6277236;22;20048;-96
2023/08/04 02:19:05;;;;;;;10.48;8.35;;;;;;;23.67;68.09;98807.38;6277217;22;20318;-96
2023/08/04 02:21:31;;;;;;;;;;;;;;;23.76;67.86;98830.72;6303223;22;19999;-96
2023/08/04 02:23:59;;;;;;;10.30;8.52;;;;;;;23.56;68.56;98816.25;6302710;22;19909;-96
2023/08/04 02:26:26;;;;;;;10.60;8.00;;;;;;;23.67;68.14;98841.13;6278238;22;20010;-96
2023/08/04 02:28:53;;;;;;;12.23;8.07;;;;;;;23.49;68.44;98815.31;6302877;22;20006;-96
2023/08/04 02:31:22;;;;;;;11.40;8.40;;;;;;;23.46;68.82;98822.34;6301365;22;20030;-96
2023/08/04 02:33:48;;;;;;;10.95;8.70;;;;;;;23.36;68.85;98821.00;6276216;22;20007;-96
2023/08/04 02:36:16;;;;;;;12.73;8.82;;;;;;;23.35;68.61;98838.66;6276480;22;19994;-96
2023/08/04 02:38:43;;;;;;;9.27;8.32;;;;;;;23.25;69.04;98831.03;6302249;22;19999;-96
2023/08/04 02:41:11;;;;;;;10.20;7.40;;;;;;;23.25;68.80;98835.75;6301427;22;19998;-96
2023/08/04 02:43:37;;;;;;;11.63;8.57;;;;;;;23.20;68.92;98829.41;6302755;22;20083;-96
2023/08/04 02:46:06;;;;;;;9.32;8.20;;;;;;;23.22;69.06;98830.97;6277904;22;20002;-96
2023/08/04 02:48:34;;;;;;;10.85;8.35;;;;;;;23.19;69.76;98835.25;6272184;22;19987;-96
2023/08/04 02:51:14;;;;;;;10.88;8.13;;;;;;;23.15;69.42;98834.41;6278239;22;20018;-96
2023/08/04 02:57:29;;;;;;;;;;;;;;;;;;;;;
2023/08/04 03:00:03;;;;;;;10.50;8.45;;;;;;;23.16;69.29;98823.06;6100755;22;19996;-96
2023/08/04 03:02:32;;;;;;;10.93;8.13;;;;;;;23.22;69.26;98828.22;6274202;22;20067;-96
2023/08/04 03:05:01;;;;;;;14.68;8.65;;;;;;;23.26;69.71;98845.56;6248113;22;20044;-95
2023/08/04 03:07:28;;;;;;;14.73;8.32;;;;;;;23.16;69.59;98833.25;6245005;22;19998;-96
2023/08/04 03:09:54;;;;;;;11.52;8.23;;;;;;;22.98;70.14;98824.66;6324488;22;19998;-95
2023/08/04 03:12:20;;;;;;;11.70;8.50;;;;;;;23.03;70.01;98842.81;6271908;22;20101;-96
2023/08/04 03:14:51;;;;;;;9.43;8.20;;;;;;;23.00;70.77;98836.88;6274499;22;20003;-96
2023/08/04 03:17:18;;;;;;;14.13;9.32;;;;;;;22.90;70.96;98836.66;6275846;22;20003;-96
2023/08/04 03:36:20;;;;;;;15.77;8.80;;;;;;;22.74;72.34;98848.56;6285653;22;20030;-96
2023/08/04 03:38:46;;;;;;;14.55;9.00;;;;;;;22.76;71.87;98862.69;6233950;22;20000;-96
2023/08/04 03:41:11;;;;;;;13.93;9.45;;;;;;;22.73;72.39;98857.94;6206413;22;20438;-96
2023/08/04 03:43:42;;;;;;;13.50;9.80;;;;;;;22.74;72.14;98859.53;6209305;22;20095;-96
2023/08/04 03:46:08;;;;;;;21.27;9.60;;;;;;;22.78;72.05;98854.09;6209332;22;20007;-95
2023/08/04 03:48:35;;;;;;;14.30;9.10;;;;;;;22.75;72.13;98843.84;6233850;22;20002;-96
2023/08/04 03:51:01;;;;;;;20.63;9.60;;;;;;;22.82;72.37;98851.41;6232367;22;20078;-96
2023/08/04 03:53:27;;;;;;;21.45;10.43;;;;;;;22.90;72.42;98850.41;6227478;22;20022;-96
2023/08/04 03:55:53;;;;;;;14.70;9.77;;;;;;;22.96;71.83;98855.22;6284469;22;20094;-95
2023/08/04 03:58:18;;;;;;;17.45;10.20;;;;;;;22.93;71.77;98849.66;6258326;22;20342;-96
2023/08/04 04:00:44;;;;;;;20.27;9.18;;;;;;;22.99;71.47;98864.69;6247107;22;20105;-96
2023/08/04 04:03:09;;;;;;;13.57;8.90;;;;;;;22.95;71.43;98855.56;6229503;22;20058;-96
2023/08/04 04:05:35;;;;;;;12.73;8.68;;;;;;;22.82;71.14;98863.19;6229231;22;19999;-95
2023/08/04 04:08:00;;;;;;;13.73;8.40;;;;;;;22.78;70.71;98860.38;6203666;22;19996;-96
2023/08/04 04:10:26;;;;;;;16.67;9.52;;;;;;;22.75;70.87;98855.63;6203620;22;20002;-95
2023/08/04 04:12:52;;;;;;;12.15;9.38;;;;;;;22.71;71.03;98846.53;6228203;22;19988;-95
2023/08/04 04:15:17;;;;;;;13.00;10.80;;;;;;;22.76;71.16;98851.69;6229094;22;20004;-94
2023/08/04 04:17:43;;;;;;;18.80;10.35;;;;;;;22.77;70.74;98855.25;6230195;22;20046;-96
2023/08/04 04:20:09;;;;;;;14.43;9.75;;;;;;;22.88;70.81;98866.44;6207039;22;19999;-96
2023/08/04 04:22:42;;;;;;;14.77;10.48;;;;;;;22.96;70.80;98876.41;6232217;22;20429;-96
2023/08/04 04:25:08;;;;;;;17.60;10.02;;;;;;;22.92;70.55;98870.03;6229890;22;20027;-96
2023/08/04 04:27:36;;;;;;;18.00;8.82;;;;;;;23.04;70.82;98875.41;6206122;22;19996;-96
2023/08/04 04:30:05;;;;;;;13.63;10.65;;;;;;;22.93;70.49;98858.72;6233479;22;20070;-96
2023/08/04 04:32:31;;;;;;;17.55;10.77;;;;;;;23.00;70.10;98860.78;6232696;22;20045;-96
2023/08/04 04:34:57;;;;;;;19.27;10.65;;;;;;;23.27;69.03;98864.44;6239464;22;20011;-96
2023/08/04 04:37:23;;;;;;;16.92;10.05;;;;;;;23.43;68.70;98861.56;6243650;22;20042;-96
2023/08/04 04:39:51;;;;;;;14.65;9.30;;;;;;;23.67;68.01;98876.09;6243276;22;20377;-96
2023/08/04 04:42:20;;;;;;;22.73;12.30;;;;;;;23.65;66.96;98851.69;6238562;22;20057;-96
2023/08/04 04:44:57;;;;;;;15.25;10.40;;;;;;;23.90;66.81;98865.06;6238979;22;20015;-95
2023/08/04 04:47:29;;;;;;;15.38;9.98;;;;;;;23.99;65.42;98866.41;6217656;22;20004;-95
2023/08/04 04:50:55;;;;;;;14.38;8.23;;;;;;;24.28;64.14;98888.00;6215557;23;20004;-95
2023/08/04 04:57:01;;;;;;;11.23;8.32;;;;;;;24.24;64.54;98862.38;6259440;23;20031;-95
2023/08/04 04:59:27;;;;;;;10.43;8.32;;;;;;;24.41;64.10;98887.41;6205059;23;20000;-95
2023/08/04 05:01:55;;;;;;;12.73;7.40;;;;;;;24.48;63.35;98877.66;6220667;23;20355;-89
2023/08/04 05:04:54;;;;;;;8.50;7.13;;;;;;;24.56;62.46;98866.38;6201510;23;20089;-96
2023/08/04 05:10:18;;;;;;;11.60;8.35;;;;;;;24.76;61.50;98863.47;6277620;22;20033;-91
2023/08/04 05:12:44;;;;;;;14.90;8.65;;;;;;;24.91;62.00;98878.19;6260745;22;20011;-91
2023/08/04 05:15:35;;;;;;;14.60;7.40;;;;;;;24.96;61.38;98864.84;6234671;22;19999;-90
2023/08/04 05:18:01;;;;;;;7.95;6.80;;;;;;;25.18;60.50;98887.91;6192510;23;20004;-90
2023/08/04 05:20:27;;;;;;;11.35;6.80;;;;;;;25.09;60.21;98854.38;6142588;23;20351;-92
2023/08/04 05:23:15;;;;;;;12.02;7.70;;;;;;;25.28;60.55;98869.94;6142902;23;20004;-93
2023/08/04 05:30:30;;;;;;;12.13;8.27;;;;;;;25.54;59.86;98891.03;6070750;23;20450;-91
2023/08/04 05:33:11;;;;;;;;;;;;;;;;;;;;;
2023/08/04 05:35:43;;;;;;;12.00;7.72;;;;;;;25.67;59.66;98882.47;6098433;23;20061;-90
2023/08/04 05:38:08;;;;;;;;;;;;;;;25.90;59.14;98894.09;6082627;23;20005;-89
2023/08/04 05:40:34;;;;;;;24.70;7.53;;;;;;;25.80;58.15;98884.53;6079668;23;19904;-89
2023/08/04 05:42:59;;;;;;;20.60;7.53;;;;;;;25.98;58.28;98894.94;6084507;23;20444;-90
2023/08/04 05:45:25;;;;;;;16.60;10.18;;;;;;;26.12;57.13;98883.19;6108690;23;20013;-91
2023/08/04 05:47:51;;;;;;;10.35;7.88;;;;;;;26.26;57.16;98883.28;6108987;23;20005;-91
2023/08/04 05:50:16;;;;;;;10.40;6.90;;;;;;;26.20;55.42;98869.06;6153928;23;20434;-91
2023/08/04 05:52:42;;;;;;;11.48;6.45;;;;;;;26.50;56.29;98892.06;6198926;23;20012;-92
2023/08/04 05:55:07;;;;;;;11.02;6.93;;;;;;;26.49;55.17;98880.25;6180510;23;20027;-91
2023/08/04 05:57:36;;;;;;;10.48;6.38;;;;;;;26.71;55.31;98881.16;6235909;22;20098;-93
2023/08/04 06:00:05;;;;;;;10.10;8.52;;;;;;;26.82;54.78;98870.13;6267310;22;20013;-92
2023/08/04 06:02:34;;;;;;;13.38;8.30;;;;;;;26.92;53.92;98882.41;6268308;22;19995;-89
2023/08/04 06:05:08;;;;;;;11.93;7.55;;;;;;;27.18;54.06;98890.34;6236508;22;20007;-92
2023/08/04 06:07:34;;;;;;;14.57;11.45;;;;;;;27.31;53.27;98878.94;6237973;22;20003;-90
2023/08/04 06:10:00;;;;;;;18.27;8.02;;;;;;;27.29;52.98;98876.59;6233282;22;20022;-92
2023/08/04 06:12:25;;;;;;;12.43;7.15;;;;;;;27.52;53.06;98883.72;6261919;22;20033;-91
2023/08/04 06:14:55;;;;;;;9.07;6.35;;;;;;;27.49;51.57;98874.22;6239793;22;19999;-90
2023/08/04 06:17:22;;;;;;;12.35;6.57;;;;;;;27.83;51.52;98895.94;6295645;22;20058;-94
2023/08/04 06:19:47;;;;;;;18.08;9.25;;;;;;;27.88;51.03;98887.25;6265021;22;20002;-94
2023/08/04 06:22:14;;;;;;;22.65;15.02;;;;;;;28.06;50.30;98876.19;6239931;22;20047;-93
2023/08/04 06:24:51;;;;;;;12.57;6.18;;;;;;;28.27;49.59;98891.94;6262640;22;19995;-96
2023/08/04 06:27:19;;;;;;;13.32;9.82;;;;;;;28.28;48.54;98879.66;6263881;22;20004;-95
2023/08/04 06:29:47;;;;;;;10.05;6.10;;;;;;;28.30;46.12;98866.22;6258387;22;20025;-96
2023/08/04 06:32:22;;;;;;;12.00;8.60;;;;;;;28.62;46.07;98898.59;6245252;22;20020;-95
2023/08/04 06:34:56;;;;;;;15.55;12.85;;;;;;;28.62;45.43;98873.66;6233875;22;20425;-89
2023/08/04 06:37:24;;;;;;;8.32;6.45;;;;;;;28.89;46.03;98893.31;6253228;22;20137;-89
2023/08/04 06:39:53;;;;;;;9.57;5.82;;;;;;;28.94;45.41;98876.25;6230705;22;20442;-93
2023/08/04 06:42:25;;;;;;;11.20;5.88;;;;;;;29.01;45.01;98867.91;6254315;22;19999;-93
2023/08/04 06:44:50;;;;;;;11.73;6.47;;;;;;;29.23;45.60;98878.09;6279213;22;20069;-93
2023/08/04 06:47:18;;;;;;;15.73;6.40;;;;;;;29.36;44.39;98870.84;6228123;22;20003;-92
2023/08/04 06:49:47;;;;;;;8.15;5.57;;;;;;;29.40;43.05;98858.53;6251752;22;20003;-91
2023/08/04 06:52:12;;;;;;;8.27;5.78;;;;;;;29.52;42.82;98846.16;6253417;22;20080;-92
2023/08/04 06:55:09;;;;;;;13.57;8.88;;;;;;;29.79;42.94;98862.97;6254997;22;20004;-96
2023/08/04 06:57:41;;;;;;;15.57;7.88;;;;;;;29.88;40.92;98856.16;6240116;22;20015;-93
2023/08/04 07:00:10;;;;;;;10.60;6.43;;;;;;;29.96;41.41;98852.13;6238599;22;20052;-96
2023/08/04 07:02:44;;;;;;;13.73;8.65;;;;;;;30.17;40.18;98860.22;6235751;22;19995;-92
2023/08/04 07:05:10;;;;;;;7.68;5.07;;;;;;;30.32;38.82;98872.00;6264944;22;20026;-93
2023/08/04 07:07:38;;;;;;;9.65;5.93;;;;;;;30.57;39.12;98874.47;6237869;22;20004;-93
2023/08/04 07:10:31;;;;;;;8.50;5.45;;;;;;;30.85;38.51;98869.72;6238496;22;20102;-94
2023/08/04 07:12:57;;;;;;;5.22;4.50;;;;;;;30.97;37.43;98862.84;6287609;22;20000;-91
2023/08/04 07:15:23;;;;;;;5.03;4.38;;;;;;;31.19;36.53;98868.88;6238075;22;20014;-91
2023/08/04 07:17:48;;;;;;;7.13;5.00;;;;;;;31.32;37.36;98861.53;6233875;22;19984;-91
2023/08/04 07:20:16;;;;;;;8.45;5.95;;;;;;;31.33;37.17;98842.81;6234666;22;19995;-91
2023/08/04 07:22:43;;;;;;;9.32;5.80;;;;;;;31.52;35.89;98852.47;6234569;22;19999;-89
2023/08/04 07:25:09;;;;;;;10.73;4.95;;;;;;;31.56;36.32;98836.50;6233539;22;20144;-87
2023/08/04 07:27:35;;;;;;;6.60;4.10;;;;;;;31.70;34.79;98850.19;6232308;22;19999;-89
2023/08/04 07:33:46;;;;;;;5.72;4.03;;;;;;;31.99;34.21;98846.91;6263144;22;20098;-92
2023/08/04 07:36:11;;;;;;;6.68;5.35;;;;;;;32.16;34.59;98851.34;6239050;22;20003;-92
2023/08/04 07:38:42;;;;;;;8.65;4.60;;;;;;;32.43;34.40;98867.91;6240374;22;20025;-90
2023/08/04 07:41:18;;;;;;;8.30;4.60;;;;;;;32.58;31.90;98867.66;6263489;22;19995;-90
2023/08/04 07:43:47;;;;;;;7.28;4.65;;;;;;;32.56;30.89;98840.22;6237921;22;20132;-90
2023/08/04 07:46:21;;;;;;;12.40;6.38;;;;;;;32.72;32.10;98845.03;6236353;22;20065;-92
2023/08/04 07:49:56;;;;;;;6.40;4.40;;;;;;;33.00;30.33;98863.16;6236544;22;20350;-90
2023/08/04 07:52:22;;;;;;;7.18;5.10;;;;;;;33.02;29.93;98854.34;6167000;23;19997;-90
2023/08/04 07:54:48;;;;;;;9.05;4.68;;;;;;;33.04;30.55;98835.19;6116919;23;20024;-91
2023/08/04 07:57:16;;;;;;;7.50;3.90;;;;;;;33.21;29.77;98849.94;6196889;22;20030;-89
2023/08/04 08:03:13;;;;;;;7.10;4.47;;;;;;;33.42;28.94;98832.66;6161125;23;20447;-96
2023/08/04 08:05:51;;;;;;;4.88;3.33;;;;;;;33.69;28.71;98856.75;6140756;23;19997;-87
2023/08/04 08:08:22;;;;;;;15.02;10.05;;;;;;;33.63;28.91;98841.75;6241359;22;20038;-91
2023/08/04 08:10:50;;;;;;;5.85;4.68;;;;;;;33.77;29.04;98840.59;6247992;22;20023;-94
2023/08/04 08:13:44;;;;;;;;;;;;;;;;;;;;;
2023/08/04 08:16:21;;;;;;;4.50;3.50;;;;;;;33.94;27.97;98858.88;6166155;23;20005;-95
2023/08/04 08:19:01;;;;;;;6.72;4.15;;;;;;;34.11;27.10;98859.63;6146077;23;20005;-94
2023/08/04 08:21:31;;;;;;;4.43;3.70;;;;;;;34.11;28.41;98840.06;6146493;23;20001;-93
2023/08/04 08:23:56;;;;;;;4.85;3.75;;;;;;;34.29;28.26;98847.19;6140805;23;20006;-93
2023/08/04 08:26:22;;;;;;;5.38;3.78;;;;;;;34.41;28.63;98841.63;6145236;23;20011;-93
2023/08/04 08:28:47;;;;;;;7.55;4.22;;;;;;;34.58;28.25;98850.72;6145147;23;20060;-96
2023/08/04 08:31:20;;;;;;;3.85;3.30;;;;;;;34.47;27.51;98833.50;6140157;23;20011;-93
2023/08/04 08:33:46;;;;;;;5.25;3.80;;;;;;;34.69;27.17;98844.84;6162870;23;20498;-89
2023/08/04 08:36:12;;;;;;;7.43;4.25;;;;;;;34.65;26.85;98827.38;6187215;22;20031;-95
2023/08/04 08:38:43;;;;;;;4.47;3.92;;;;;;;34.89;26.53;98849.47;6238109;22;20094;-96
2023/08/04 08:41:13;;;;;;;5.13;3.50;;;;;;;35.00;25.70;98841.50;6242913;22;20054;-96
2023/08/04 08:43:44;;;;;;;6.80;3.60;;;;;;;35.02;25.25;98830.63;6278083;22;20014;-94
2023/08/04 08:46:21;;;;;;;5.90;3.58;;;;;;;35.19;25.69;98843.28;6254727;22;19991;-94
2023/08/04 08:48:53;;;;;;;19.80;16.85;;;;;;;35.34;25.33;98852.03;6256373;22;20003;-96
2023/08/04 08:51:25;;;;;;;5.03;3.72;;;;;;;35.23;25.67;98812.41;6279919;22;20011;-95
2023/08/04 08:53:51;;;;;;;7.10;4.60;;;;;;;35.31;25.37;98821.34;6242089;22;20004;-92
2023/08/04 08:56:17;;;;;;;5.90;4.20;;;;;;;35.37;25.52;98825.94;6238903;22;19987;-96
2023/08/04 08:58:42;;;;;;;4.85;4.10;;;;;;;35.29;25.69;98823.81;6242942;22;20051;-96
2023/08/04 09:01:30;;;;;;;6.88;4.07;;;;;;;35.44;25.23;98840.91;6241763;22;20009;-96
2023/08/04 09:04:05;;;;;;;7.53;4.43;;;;;;;35.49;25.13;98831.94;6272260;22;19979;-96
2023/08/04 09:06:34;;;;;;;4.68;4.00;;;;;;;35.57;24.44;98828.47;6239421;22;20007;-95
2023/08/04 09:09:12;;;;;;;5.88;3.88;;;;;;;35.70;24.57;98836.84;6272520;22;20003;-96
2023/08/04 09:11:42;;;;;;;6.75;4.00;;;;;;;35.79;24.09;98838.94;6209366;22;20016;-96
2023/08/04 09:14:11;;;;;;;6.45;4.05;;;;;;;35.91;24.20;98834.53;6205938;22;20346;-89
2023/08/04 09:16:37;;;;;;;7.03;4.22;;;;;;;35.99;24.55;98838.66;6207033;22;20417;-96
2023/08/04 09:22:35;;;;;;;6.60;4.25;;;;;;;36.00;23.40;98817.78;6286490;22;20018;-93
2023/08/04 09:25:07;;;;;;;5.75;4.40;;;;;;;36.04;23.76;98814.84;6256062;23;20034;-94
2023/08/04 09:27:39;;;;;;;7.90;6.28;;;;;;;36.07;24.31;98816.72;6232604;23;20067;-92
2023/08/04 09:30:17;;;;;;;7.55;6.00;;;;;;;36.09;24.82;98820.66;6207823;23;20083;-93
2023/08/04 09:32:46;;;;;;;12.10;6.70;;;;;;;36.17;24.25;98810.78;6203360;23;20046;-94
2023/08/04 09:35:17;;;;;;;10.95;6.90;;;;;;;36.16;23.95;98828.06;6201334;23;20067;-87
2023/08/04 09:41:31;;;;;;;18.98;11.30;;;;;;;36.07;24.20;98806.31;6200643;23;20028;-91
2023/08/04 09:44:09;;;;;;;27.10;18.50;;;;;;;36.26;23.96;98832.50;6194262;23;20001;-90
2023/08/04 09:46:46;;;;;;;13.75;11.70;;;;;;;36.28;24.34;98810.38;6193645;23;20449;-88
2023/08/04 09:49:15;;;;;;;7.03;4.40;;;;;;;36.28;24.21;98816.00;6191194;23;20000;-90
2023/08/04 09:52:06;;;;;;;7.68;4.65;;;;;;;36.34;24.70;98811.34;6191985;23;20000;-90
2023/08/04 09:54:32;;;;;;;7.35;5.15;;;;;;;36.41;24.53;98813.09;6146800;23;20009;-90
2023/08/04 09:56:58;;;;;;;6.80;5.22;;;;;;;36.47;24.23;98811.25;6106198;23;20001;-92
2023/08/04 09:59:44;;;;;;;5.93;4.93;;;;;;;36.50;24.21;98792.72;6156600;23;20057;-89
2023/08/04 10:02:12;;;;;;;11.80;5.47;;;;;;;36.61;24.00;98810.72;6129338;23;20002;-90
2023/08/04 10:04:40;;;;;;;6.15;4.45;;;;;;;36.70;24.05;98793.16;6108083;23;20034;-95
2023/08/04 10:07:17;;;;;;;5.18;4.18;;;;;;;36.68;23.93;98800.50;6116146;23;20022;-96
2023/08/04 10:09:44;;;;;;;5.10;4.22;;;;;;;36.69;23.41;98811.25;6163835;23;20447;-96
2023/08/04 10:12:16;;;;;;;8.13;4.93;;;;;;;36.59;23.74;98807.59;6190148;23;20017;-96
2023/08/04 10:14:45;;;;;;;6.85;4.82;;;;;;;36.69;24.06;98824.47;6162840;23;20369;-94
2023/08/04 10:17:19;;;;;;;6.45;4.70;;;;;;;36.57;24.26;98801.66;6165427;23;20014;-96
2023/08/04 10:23:15;;;;;;;8.85;4.25;;;;;;;36.60;24.06;98808.38;6166633;23;20089;-96
2023/08/04 10:25:54;;;;;;;6.03;5.07;;;;;;;36.68;24.45;98822.94;6188472;23;19988;-96
2023/08/04 10:28:35;;;;;;;5.93;4.80;;;;;;;36.67;23.91;98810.94;6175926;23;20004;-96
2023/08/04 10:31:11;;;;;;;5.20;4.70;;;;;;;36.47;24.67;98804.88;6203454;23;20004;-93
2023/08/04 10:33:45;;;;;;;6.32;4.35;;;;;;;36.65;23.97;98812.63;6202001;23;20008;-96
2023/08/04 10:36:14;;;;;;;5.40;4.32;;;;;;;36.46;23.78;98801.28;6198645;23;20079;-95
2023/08/04 10:39:20;;;;;;;6.43;4.72;;;;;;;36.53;24.03;98817.06;6179504;23;20010;-94
2023/08/04 10:41:49;;;;;;;10.45;4.93;;;;;;;36.60;24.40;98813.97;6197583;23;20061;-96
2023/08/04 10:45:01;;;;;;;4.88;4.28;;;;;;;36.59;23.93;98812.44;6215063;22;20022;-96
2023/08/04 10:47:52;;;;;;;7.55;4.35;;;;;;;36.77;24.04;98811.75;6267147;22;20026;-96
2023/08/04 10:50:26;;;;;;;7.50;4.40;;;;;;;36.73;24.04;98794.25;6217318;22;20108;-96
2023/08/04 10:52:55;;;;;;;5.78;4.75;;;;;;;36.84;23.67;98805.84;6268145;22;19999;-96
2023/08/04 10:56:19;;;;;;;5.72;4.57;;;;;;;36.87;23.38;98798.53;6272537;22;19992;-96
2023/08/04 11:02:37;;;;;;;6.43;4.88;;;;;;;37.06;22.63;98785.34;6313232;22;20084;-94
2023/08/04 11:05:09;;;;;;;4.90;4.30;;;;;;;37.10;22.86;98788.78;6276670;22;20022;-95
2023/08/04 11:10:28;;;;;;;;;;;;;;;;;;;;;
2023/08/04 11:13:14;;;;;;;6.60;3.83;;;;;;;37.30;22.70;98789.16;6263059;23;20015;-95
2023/08/04 11:15:48;;;;;;;7.82;5.00;;;;;;;37.33;23.21;98781.81;6208216;23;20004;-92
2023/08/04 11:18:35;;;;;;;5.25;4.18;;;;;;;37.51;22.50;98804.31;6177738;23;20435;-92
2023/08/04 11:21:08;;;;;;;5.28;4.50;;;;;;;37.53;22.97;98793.41;6226485;23;20431;-91
2023/08/04 11:23:33;;;;;;;6.57;4.82;;;;;;;37.55;22.97;98795.75;6177367;23;20087;-92
2023/08/04 11:25:59;;;;;;;6.25;4.57;;;;;;;37.56;22.32;98791.66;6176324;23;20058;-92
2023/08/04 11:28:25;;;;;;;6.32;4.80;;;;;;;37.56;22.97;98791.66;6177285;23;20093;-92
2023/08/04 11:30:52;;;;;;;5.90;4.78;;;;;;;37.44;23.07;98778.56;6174357;23;20011;-90
2023/08/04 11:33:17;;;;;;;5.85;4.68;;;;;;;37.46;22.89;98771.25;6173946;23;20008;-89
2023/08/04 11:35:44;;;;;;;5.75;4.68;;;;;;;37.51;22.52;98781.06;6172101;23;20000;-87
2023/08/04 11:38:33;;;;;;;6.20;5.50;;;;;;;37.42;22.67;98762.19;6177773;23;20078;-95
2023/08/04 11:40:59;;;;;;;6.78;5.00;;;;;;;37.47;22.71;98772.00;6160218;23;20004;-95
2023/08/04 11:43:29;;;;;;;8.57;4.85;;;;;;;37.50;22.76;98765.44;6175555;23;20028;-89
2023/08/04 11:46:47;;;;;;;4.95;4.45;;;;;;;37.57;22.52;98763.16;6180011;23;20084;-96
2023/08/04 11:49:15;;;;;;;8.45;6.75;;;;;;;37.46;22.82;98751.59;6180266;23;20015;-95
2023/08/04 11:51:44;;;;;;;6.00;4.82;;;;;;;37.61;22.78;98749.72;6204185;23;20042;-96
2023/08/04 11:54:59;;;;;;;7.70;5.00;;;;;;;37.66;23.28;98756.75;6181931;22;20008;-95
2023/08/04 11:57:28;;;;;;;5.90;5.18;;;;;;;37.58;22.97;98758.31;6245050;23;20003;-95
2023/08/04 11:59:57;;;;;;;14.05;4.68;;;;;;;37.22;23.04;98749.34;6180372;23;20035;-96
2023/08/04 12:02:33;;;;;;;8.05;5.03;;;;;;;37.55;23.41;98768.41;6230757;23;20006;-96
2023/08/04 12:05:33;;;;;;;5.55;4.97;;;;;;;37.74;22.52;98763.59;6233378;23;20415;-96
2023/08/04 12:08:19;;;;;;;8.77;4.65;;;;;;;37.70;22.61;98739.72;6230827;22;20024;-96
2023/08/04 12:10:45;;;;;;;5.88;4.80;;;;;;;37.71;22.64;98736.47;6183682;23;20004;-94
2023/08/04 12:13:33;;;;;;;7.03;5.10;;;;;;;37.84;22.12;98749.56;6198698;23;20100;-94
2023/08/04 12:16:02;;;;;;;29.73;6.38;;;;;;;37.76;21.93;98735.03;6216521;23;20431;-92
2023/08/04 12:18:58;;;;;;;8.13;5.18;;;;;;;37.80;22.36;98722.38;6206376;23;20346;-94
2023/08/04 12:21:23;;;;;;;7.35;4.80;;;;;;;37.90;21.67;98716.75;6199213;23;20000;-94
2023/08/04 12:23:54;;;;;;;10.82;5.75;;;;;;;37.93;22.29;98732.66;6180893;23;20041;-94
2023/08/04 12:26:20;;;;;;;18.60;16.85;;;;;;;38.01;22.20;98739.53;6179556;23;20306;-92
2023/08/04 12:28:49;;;;;;;6.47;5.38;;;;;;;38.04;21.77;98747.06;6182055;23;20007;-92
2023/08/04 12:31:27;;;;;;;14.82;7.90;;;;;;;37.85;21.62;98725.81;6217958;23;20003;-92
2023/08/04 12:33:52;;;;;;;9.45;8.20;;;;;;;37.78;22.30;98721.31;6237225;23;20013;-96
2023/08/04 12:36:18;;;;;;;15.55;8.68;;;;;;;38.04;22.11;98740.59;6177796;23;20000;-95
2023/08/04 12:38:46;;;;;;;5.85;4.75;;;;;;;38.08;21.66;98704.69;6183686;23;19984;-95
2023/08/04 12:41:30;;;;;;;5.22;4.60;;;;;;;38.26;21.42;98718.69;6206196;23;20011;-87
2023/08/04 12:43:56;;;;;;;9.70;5.60;;;;;;;38.24;22.00;98723.25;6200971;23;20079;-89
2023/08/04 12:46:32;;;;;;;7.93;7.13;;;;;;;38.28;21.81;98735.88;6205964;23;20034;-87
2023/08/04 12:49:00;;;;;;;12.55;9.93;;;;;;;38.20;21.90;98726.22;6178332;23;20004;-87